Time;durP1;ratioP1;P1;durP2;ratioP2;P2;SDS_P1;SDS_P2;PMS_P1;PMS_P2;Temp;Humidity;BMP_temperature;BMP_pressure;BME280_temperature;BME280_humidity;BME280_pressure;Samples;Min_cycle;Max_cycle;Signal;HPM_P1;HPM_P2
2021/07/27 00:00:00;;;;;;;31.58;25.73;;;;;;;17.55;100.00;101085.94;5274462;28;20025;-69
2021/07/27 00:02:32;;;;;;;29.93;25.67;;;;;;;17.56;100.00;101082.28;5273225;28;20036;-72
2021/07/27 00:05:03;;;;;;;30.10;26.13;;;;;;;17.55;100.00;101091.22;5273885;28;20029;-69
2021/07/27 00:07:37;;;;;;;31.63;25.88;;;;;;;17.56;100.00;101094.69;5273814;28;20017;-69
2021/07/27 00:10:09;;;;;;;28.55;25.48;;;;;;;17.57;100.00;101086.56;5274482;28;20405;-70
2021/07/27 00:12:40;;;;;;;31.58;26.55;;;;;;;17.57;100.00;101083.09;5272041;28;20031;-69
2021/07/27 00:15:12;;;;;;;32.40;26.50;;;;;;;17.58;100.00;101093.53;5275836;28;20082;-70
2021/07/27 00:17:43;;;;;;;31.15;26.08;;;;;;;17.56;100.00;101089.41;5274000;28;20031;-69
2021/07/27 00:20:15;;;;;;;29.88;26.67;;;;;;;17.55;100.00;101085.09;5274286;28;20067;-69
2021/07/27 00:22:46;;;;;;;29.65;25.88;;;;;;;17.52;100.00;101086.25;5272406;28;20027;-69
2021/07/27 00:25:18;;;;;;;31.50;26.23;;;;;;;17.56;100.00;101082.28;5273844;28;20032;-69
2021/07/27 00:27:49;;;;;;;32.03;27.50;;;;;;;17.55;100.00;101077.16;5275333;28;20016;-69
2021/07/27 00:30:21;;;;;;;36.17;29.00;;;;;;;17.52;100.00;101084.44;5272571;28;20025;-69
2021/07/27 00:32:52;;;;;;;33.17;27.60;;;;;;;17.52;100.00;101084.44;5273816;28;20205;-69
2021/07/27 00:35:25;;;;;;;34.67;28.67;;;;;;;17.51;100.00;101082.78;5274429;28;20032;-69
2021/07/27 00:38:09;;;;;;;32.45;28.35;;;;;;;17.50;100.00;101080.28;5271489;28;20061;-69
2021/07/27 00:40:41;;;;;;;34.88;28.67;;;;;;;17.50;100.00;101075.84;5274070;28;20082;-71
2021/07/27 00:43:14;;;;;;;31.75;27.80;;;;;;;17.52;100.00;101081.78;5272893;28;20036;-69
2021/07/27 00:45:45;;;;;;;35.50;30.02;;;;;;;17.52;100.00;101080.97;5272375;28;20399;-69
2021/07/27 00:48:17;;;;;;;35.17;29.37;;;;;;;17.52;100.00;101068.53;5274356;28;20020;-69
2021/07/27 00:50:48;;;;;;;41.20;30.87;;;;;;;17.56;100.00;101074.31;5273957;28;20031;-70
2021/07/27 00:53:20;;;;;;;41.10;32.30;;;;;;;17.55;100.00;101062.09;5273920;28;20800;-69
2021/07/27 00:55:52;;;;;;;37.60;30.13;;;;;;;17.59;100.00;101057.28;5271356;28;20133;-70
2021/07/27 00:58:23;;;;;;;39.50;32.80;;;;;;;17.58;100.00;101059.09;5274306;28;20466;-69
2021/07/27 01:00:54;;;;;;;38.35;30.98;;;;;;;17.58;100.00;101061.75;5273916;28;20073;-69
2021/07/27 01:03:26;;;;;;;34.92;28.92;;;;;;;17.59;100.00;101062.56;5273402;28;20039;-69
2021/07/27 01:05:58;;;;;;;34.70;29.45;;;;;;;17.58;100.00;101067.06;5271119;28;20112;-69
2021/07/27 01:08:31;;;;;;;40.15;30.38;;;;;;;17.60;100.00;101062.41;5261847;28;20500;-69
2021/07/27 01:11:03;;;;;;;38.60;31.52;;;;;;;17.59;100.00;101062.56;5273683;28;20081;-69
2021/07/27 01:13:34;;;;;;;38.20;30.27;;;;;;;17.59;100.00;101065.22;5272446;28;20029;-69
2021/07/27 01:16:08;;;;;;;36.80;29.67;;;;;;;17.58;100.00;101060.91;5273097;28;20036;-69
2021/07/27 01:18:47;;;;;;;36.70;30.77;;;;;;;17.52;100.00;101059.78;5254017;28;20035;-69
2021/07/27 01:41:04;;;;;;;40.90;32.45;;;;;;;17.27;100.00;101043.09;5272503;28;20044;-69
2021/07/27 01:43:40;;;;;;;38.85;31.15;;;;;;;17.29;100.00;101027.06;5271297;28;20028;-70
2021/07/27 01:46:14;;;;;;;41.47;33.08;;;;;;;17.19;100.00;101030.72;5272996;28;20066;-69
2021/07/27 01:48:46;;;;;;;38.90;32.95;;;;;;;17.19;100.00;101030.72;5272495;28;20424;-69
2021/07/27 01:51:17;;;;;;;39.30;32.00;;;;;;;17.17;100.00;101032.72;5273764;28;20021;-69
2021/07/27 01:53:53;;;;;;;40.20;32.73;;;;;;;17.13;100.00;101030.59;5271733;28;20060;-69
2021/07/27 01:56:24;;;;;;;35.58;31.40;;;;;;;17.10;100.00;101042.31;5272377;28;20035;-69
2021/07/27 01:58:57;;;;;;;38.10;31.17;;;;;;;17.09;100.00;101040.69;5272986;28;20749;-69
2021/07/27 02:01:29;;;;;;;38.90;32.15;;;;;;;17.08;100.00;101041.66;5269237;28;20021;-69
2021/07/27 02:04:00;;;;;;;36.03;31.77;;;;;;;17.06;100.00;101035.72;5272797;28;20040;-69
2021/07/27 02:06:32;;;;;;;38.78;32.97;;;;;;;17.03;100.00;101030.75;5274700;28;20025;-69
2021/07/27 02:09:06;;;;;;;41.03;32.97;;;;;;;17.01;100.00;101023.00;5275431;28;20032;-69
2021/07/27 02:11:43;;;;;;;37.67;30.50;;;;;;;16.97;100.00;101028.75;5276708;28;20107;-69
2021/07/27 02:14:16;;;;;;;38.25;30.95;;;;;;;16.95;100.00;101028.13;5277061;28;20062;-69
2021/07/27 02:16:48;;;;;;;38.38;31.70;;;;;;;16.92;100.00;101021.31;5277026;28;20482;-70
2021/07/27 02:19:19;;;;;;;37.28;29.90;;;;;;;16.91;100.00;101021.50;5274676;28;20034;-69
2021/07/27 02:21:50;;;;;;;36.30;28.80;;;;;;;16.91;100.00;101035.56;5276863;28;20021;-69
2021/07/27 02:24:21;;;;;;;41.88;33.00;;;;;;;16.89;100.00;101026.94;5276638;28;20028;-70
2021/07/27 02:26:53;;;;;;;36.77;30.00;;;;;;;16.88;100.00;101037.72;5275320;28;20031;-69
2021/07/27 02:29:24;;;;;;;37.65;29.27;;;;;;;16.86;100.00;101034.41;5276733;28;20021;-69
2021/07/27 02:31:55;;;;;;;34.65;29.15;;;;;;;16.84;100.00;101037.22;5275796;28;20020;-69
2021/07/27 02:34:31;;;;;;;40.10;29.38;;;;;;;16.78;100.00;101033.44;5275360;28;20020;-69
2021/07/27 02:37:03;;;;;;;35.80;29.20;;;;;;;16.75;100.00;101030.28;5276135;28;20557;-69
2021/07/27 02:39:34;;;;;;;34.70;28.25;;;;;;;16.76;100.00;101034.59;5275896;28;20065;-69
2021/07/27 02:42:05;;;;;;;36.95;29.88;;;;;;;16.75;100.00;101041.69;5274616;28;20529;-69
2021/07/27 02:44:37;;;;;;;35.97;30.02;;;;;;;16.72;100.00;101047.28;5267415;28;20085;-69
2021/07/27 02:47:08;;;;;;;36.50;28.35;;;;;;;16.72;100.00;101039.34;5276167;28;20043;-69
2021/07/27 02:49:39;;;;;;;33.38;29.45;;;;;;;16.68;100.00;101034.56;5276231;28;20870;-69
2021/07/27 02:52:11;;;;;;;36.78;28.33;;;;;;;16.67;100.00;101038.19;5277054;28;20040;-71
2021/07/27 02:54:42;;;;;;;32.88;28.48;;;;;;;16.65;100.00;101041.00;5273826;28;20028;-69
2021/07/27 02:57:15;;;;;;;31.75;26.45;;;;;;;16.65;100.00;101050.75;5257401;28;20020;-69
2021/07/27 02:59:47;;;;;;;32.85;27.33;;;;;;;16.61;100.00;101039.66;5275622;28;20036;-70
2021/07/27 03:02:22;;;;;;;33.53;27.63;;;;;;;16.66;100.00;101039.16;5276052;28;20032;-69
2021/07/27 03:04:53;;;;;;;33.80;27.05;;;;;;;16.59;100.00;101041.63;5273835;28;20157;-69
2021/07/27 03:07:33;;;;;;;33.83;27.08;;;;;;;16.60;100.00;101043.31;5275665;28;20533;-69
2021/07/27 03:10:20;;;;;;;36.92;27.15;;;;;;;16.56;100.00;101046.47;5275901;28;20069;-68
2021/07/27 03:12:53;;;;;;;35.13;27.67;;;;;;;16.53;100.00;101040.50;5273763;28;20040;-68
2021/07/27 03:15:26;;;;;;;32.72;26.63;;;;;;;16.51;100.00;101046.94;5275176;28;20081;-68
2021/07/27 03:17:59;;;;;;;31.85;27.05;;;;;;;16.51;100.00;101049.56;5274966;28;20036;-68
2021/07/27 03:20:32;;;;;;;33.05;26.95;;;;;;;16.44;100.00;101046.78;5274982;28;20067;-68
2021/07/27 03:23:03;;;;;;;31.85;26.05;;;;;;;16.46;100.00;101046.59;5274850;28;20111;-69
2021/07/27 03:25:36;;;;;;;34.40;26.95;;;;;;;16.47;100.00;101045.59;5275203;28;20515;-68
2021/07/27 03:28:07;;;;;;;31.90;26.35;;;;;;;16.43;100.00;101047.75;5274033;28;20035;-68
2021/07/27 03:30:39;;;;;;;35.15;26.83;;;;;;;16.42;100.00;101051.38;5275012;28;20032;-68
2021/07/27 03:33:14;;;;;;;29.88;24.92;;;;;;;16.43;100.00;101049.56;5275664;28;20020;-68
2021/07/27 03:35:45;;;;;;;32.53;26.67;;;;;;;16.40;100.00;101049.88;5274477;28;20044;-69
2021/07/27 03:38:16;;;;;;;33.15;25.98;;;;;;;16.41;100.00;101046.28;5273650;28;20036;-68
2021/07/27 03:40:48;;;;;;;31.38;25.50;;;;;;;16.41;100.00;101054.22;5276073;28;20113;-68
2021/07/27 03:43:19;;;;;;;27.27;24.10;;;;;;;16.40;100.00;101055.16;5274795;28;20032;-68
2021/07/27 03:45:50;;;;;;;32.03;25.55;;;;;;;16.39;100.00;101053.53;5274120;28;20033;-68
2021/07/27 03:48:21;;;;;;;31.70;25.85;;;;;;;16.38;100.00;101055.34;5274705;28;20146;-68
2021/07/27 03:50:53;;;;;;;29.77;24.88;;;;;;;16.39;100.00;101053.53;5275543;28;20094;-69
2021/07/27 03:53:25;;;;;;;30.15;24.98;;;;;;;16.38;100.00;101052.72;5274943;28;20024;-69
2021/07/27 03:55:56;;;;;;;32.83;25.52;;;;;;;16.32;100.00;101045.41;5272065;28;20025;-69
2021/07/27 03:58:31;;;;;;;27.60;23.42;;;;;;;16.38;100.00;101052.72;5274666;28;20036;-68
2021/07/27 04:01:05;;;;;;;30.13;25.50;;;;;;;16.36;100.00;101041.44;5271138;28;20037;-68
2021/07/27 04:03:36;;;;;;;30.92;24.95;;;;;;;16.32;100.00;101041.94;5271076;28;20039;-68
2021/07/27 04:06:08;;;;;;;33.55;25.10;;;;;;;16.34;100.00;101047.91;5255019;28;20623;-69
2021/07/27 04:08:39;;;;;;;30.42;24.58;;;;;;;16.35;100.00;101053.03;5273637;28;20626;-69
2021/07/27 04:11:10;;;;;;;32.17;25.17;;;;;;;16.36;100.00;101054.66;5273427;28;20042;-68
2021/07/27 04:13:42;;;;;;;33.90;25.50;;;;;;;16.35;100.00;101038.97;5273379;28;20161;-69
2021/07/27 04:16:14;;;;;;;31.02;24.65;;;;;;;16.34;100.00;101047.91;5274014;28;20285;-68
2021/07/27 04:18:49;;;;;;;30.52;24.88;;;;;;;16.34;100.00;101038.16;5254870;28;20032;-68
2021/07/27 04:21:20;;;;;;;28.38;24.83;;;;;;;16.29;100.00;101037.84;5273685;28;20090;-68
2021/07/27 04:23:51;;;;;;;29.13;23.98;;;;;;;16.29;100.00;101030.72;5273486;28;20020;-68
2021/07/27 04:26:23;;;;;;;29.83;25.15;;;;;;;16.28;100.00;101025.56;5273218;28;20031;-68
2021/07/27 04:28:54;;;;;;;29.70;24.27;;;;;;;16.29;100.00;101033.38;5272230;28;20022;-68
2021/07/27 04:31:26;;;;;;;29.88;24.75;;;;;;;16.30;100.00;101028.91;5274318;28;20178;-68
2021/07/27 04:33:57;;;;;;;27.73;23.15;;;;;;;16.33;100.00;101027.72;5273446;28;20105;-69
2021/07/27 04:36:28;;;;;;;29.67;24.00;;;;;;;16.33;100.00;101022.44;5272008;28;20093;-67
2021/07/27 04:38:59;;;;;;;29.23;23.40;;;;;;;16.34;100.00;101024.94;5273932;28;20044;-68
2021/07/27 04:41:33;;;;;;;30.80;25.25;;;;;;;16.36;100.00;101022.13;5272702;28;20119;-68
2021/07/27 04:44:05;;;;;;;35.50;26.40;;;;;;;16.38;100.00;101028.09;5273382;28;20047;-68
2021/07/27 04:46:37;;;;;;;30.80;23.75;;;;;;;16.39;100.00;101016.50;5274171;28;20017;-68
2021/07/27 04:49:08;;;;;;;32.72;24.48;;;;;;;16.43;100.00;101021.31;5273184;28;20154;-68
2021/07/27 04:51:39;;;;;;;28.05;23.85;;;;;;;16.47;100.00;101021.81;5273688;28;20020;-69
2021/07/27 04:54:26;;;;;;;28.20;24.48;;;;;;;16.46;100.00;101025.44;5254277;28;20056;-68
2021/07/27 04:56:58;;;;;;;34.17;24.67;;;;;;;16.46;100.00;101026.25;5273891;28;20055;-68
2021/07/27 04:59:32;;;;;;;31.70;24.83;;;;;;;16.51;100.00;101023.94;5273979;28;20064;-68
2021/07/27 05:02:11;;;;;;;32.28;24.63;;;;;;;16.52;100.00;101019.50;5272054;28;20032;-68
2021/07/27 05:04:46;;;;;;;33.67;24.13;;;;;;;16.51;100.00;101015.19;5273819;28;20039;-68
2021/07/27 05:07:17;;;;;;;32.10;25.90;;;;;;;16.54;100.00;101020.16;5272777;28;20102;-68
2021/07/27 05:09:48;;;;;;;33.85;25.08;;;;;;;16.60;100.00;101016.88;5273420;28;20024;-68
2021/07/27 05:12:20;;;;;;;33.75;25.95;;;;;;;16.63;100.00;101018.31;5271996;28;20027;-68
2021/07/27 05:14:51;;;;;;;35.88;25.40;;;;;;;16.70;100.00;101020.16;5273544;28;20021;-68
2021/07/27 05:17:22;;;;;;;35.72;26.83;;;;;;;16.70;100.00;101014.84;5273891;28;20035;-69
2021/07/27 05:19:54;;;;;;;35.30;27.60;;;;;;;16.74;100.00;101012.75;5272740;28;20225;-68
2021/07/27 05:22:25;;;;;;;32.25;25.88;;;;;;;16.84;100.00;101018.69;5270087;28;20043;-68
2021/07/27 05:24:56;;;;;;;35.15;26.75;;;;;;;16.89;100.00;101016.38;5271168;28;20402;-68
2021/07/27 05:27:32;;;;;;;36.65;27.45;;;;;;;17.03;100.00;101017.50;5272178;28;20025;-68
2021/07/27 05:30:04;;;;;;;34.30;26.75;;;;;;;17.03;100.00;101020.16;5270837;28;20056;-69
2021/07/27 05:32:35;;;;;;;32.83;26.88;;;;;;;17.09;100.00;101013.38;5271820;28;20389;-68
2021/07/27 05:35:08;;;;;;;31.93;26.03;;;;;;;17.08;100.00;101011.72;5272450;28;20036;-68
2021/07/27 05:37:40;;;;;;;36.92;27.23;;;;;;;17.13;100.00;101018.16;5272269;28;20051;-68
2021/07/27 05:40:12;;;;;;;30.83;25.63;;;;;;;17.16;100.00;101027.56;5272871;28;20024;-68
2021/07/27 05:42:43;;;;;;;32.28;25.35;;;;;;;17.20;100.00;101018.31;5275700;28;20035;-68
2021/07/27 05:45:15;;;;;;;32.25;25.85;;;;;;;17.21;100.00;101020.78;5276855;28;20036;-69
2021/07/27 05:47:46;;;;;;;30.02;24.00;;;;;;;17.27;100.00;101021.91;5276083;28;20104;-68
2021/07/27 05:50:18;;;;;;;28.70;24.03;;;;;;;17.27;100.00;101020.13;5275960;28;20028;-69
2021/07/27 05:52:56;;;;;;;28.77;23.58;;;;;;;17.39;100.00;101020.59;5272559;28;20111;-68
2021/07/27 05:55:28;;;;;;;28.83;23.80;;;;;;;17.39;100.00;101025.06;5275615;28;20047;-69
2021/07/27 05:57:59;;;;;;;27.17;21.98;;;;;;;17.47;100.00;101019.75;5275813;28;20033;-69
2021/07/27 06:00:30;;;;;;;27.87;21.70;;;;;;;17.51;100.00;101021.03;5271343;28;20043;-70
2021/07/27 06:03:06;;;;;;;27.65;21.63;;;;;;;17.56;100.00;101031.13;5269665;28;20036;-69
2021/07/27 06:05:37;;;;;;;27.75;23.00;;;;;;;17.57;100.00;101027.47;5271740;28;20024;-69
2021/07/27 06:08:08;;;;;;;30.77;24.67;;;;;;;17.63;100.00;101024.16;5275654;28;20513;-71
2021/07/27 06:10:39;;;;;;;25.73;21.53;;;;;;;17.65;100.00;101022.13;5268379;28;20075;-71
2021/07/27 06:13:11;;;;;;;29.03;22.97;;;;;;;17.64;100.00;101026.59;5269579;28;20029;-70
2021/07/27 06:15:42;;;;;;;28.93;21.47;;;;;;;17.78;100.00;101024.28;5267290;28;20064;-70
2021/07/27 06:18:13;;;;;;;30.95;22.50;;;;;;;17.86;100.00;101014.47;5268604;28;20024;-70
2021/07/27 06:20:45;;;;;;;25.48;21.77;;;;;;;17.89;100.00;101030.00;5268704;28;20040;-69
2021/07/27 06:23:16;;;;;;;32.43;21.80;;;;;;;18.04;100.00;101024.81;5267460;28;20070;-69
2021/07/27 06:25:47;;;;;;;32.20;24.20;;;;;;;18.04;100.00;101024.81;5272884;28;20098;-68
2021/07/27 06:28:18;;;;;;;27.20;21.67;;;;;;;18.15;100.00;101018.28;5275559;28;20043;-72
2021/07/27 06:30:50;;;;;;;26.43;21.37;;;;;;;18.20;100.00;101018.56;5271793;28;20048;-69
2021/07/27 06:33:21;;;;;;;23.60;21.00;;;;;;;18.20;100.00;101021.22;5267501;28;20031;-71
2021/07/27 06:35:56;;;;;;;23.53;20.77;;;;;;;18.24;100.00;101022.53;5269825;28;20129;-71
2021/07/27 06:38:28;;;;;;;27.70;20.83;;;;;;;18.27;100.00;101024.81;5273749;28;20452;-70
2021/07/27 06:41:00;;;;;;;25.58;21.35;;;;;;;18.19;100.00;101033.66;5272313;28;20029;-70
2021/07/27 06:43:32;;;;;;;24.57;20.17;;;;;;;18.24;100.00;101031.28;5274529;28;20444;-71
2021/07/27 06:46:04;;;;;;;25.27;19.87;;;;;;;18.30;100.00;101029.78;5275095;28;20353;-72
2021/07/27 06:48:35;;;;;;;24.45;19.65;;;;;;;18.31;100.00;101014.69;5251764;28;21167;-70
2021/07/27 06:51:17;;;;;;;26.83;19.38;;;;;;;18.35;100.00;101022.13;5271811;28;20675;-70
2021/07/27 06:53:50;;;;;;;27.67;19.75;;;;;;;18.30;100.00;101024.47;5272172;28;20126;-71
2021/07/27 06:56:22;;;;;;;22.58;18.50;;;;;;;18.36;100.00;101033.53;5254475;28;20068;-70
2021/07/27 06:58:53;;;;;;;22.88;20.42;;;;;;;18.37;100.00;101038.69;5254122;28;20147;-70
2021/07/27 07:01:24;;;;;;;22.77;18.50;;;;;;;18.43;100.00;101037.97;5273499;28;20553;-70
2021/07/27 07:03:55;;;;;;;22.40;19.43;;;;;;;18.44;100.00;101034.31;5254305;28;20485;-72
2021/07/27 07:06:28;;;;;;;25.05;19.30;;;;;;;18.53;100.00;101036.91;5263744;28;20369;-70
2021/07/27 07:08:59;;;;;;;22.08;18.08;;;;;;;18.61;100.00;101032.38;5266842;28;20119;-70
2021/07/27 07:11:30;;;;;;;21.83;18.23;;;;;;;18.76;100.00;101042.25;5265546;28;20028;-71
2021/07/27 07:14:02;;;;;;;27.40;19.53;;;;;;;18.86;100.00;101038.31;5264261;28;20032;-70
2021/07/27 07:16:33;;;;;;;23.23;18.50;;;;;;;18.98;100.00;101043.19;5270920;28;20036;-71
2021/07/27 07:19:04;;;;;;;23.77;17.70;;;;;;;19.06;100.00;101040.47;5266518;28;20043;-71
2021/07/27 07:21:35;;;;;;;21.20;18.67;;;;;;;19.06;100.00;101043.13;5268654;28;20159;-72
2021/07/27 07:24:07;;;;;;;21.90;18.17;;;;;;;19.19;100.00;101028.22;5268211;28;20155;-71
2021/07/27 07:26:39;;;;;;;21.67;18.33;;;;;;;19.43;100.00;101042.22;5270059;28;20410;-72
2021/07/27 07:29:11;;;;;;;21.50;17.48;;;;;;;19.62;100.00;101039.06;5270126;28;20027;-70
2021/07/27 07:31:42;;;;;;;21.77;17.80;;;;;;;19.68;100.00;101045.47;5251342;28;20657;-68
2021/07/27 07:34:16;;;;;;;20.00;17.60;;;;;;;19.91;100.00;101035.53;5269096;28;20029;-71
2021/07/27 07:36:50;;;;;;;18.63;16.70;;;;;;;19.99;100.00;101028.44;5271733;28;20495;-68
2021/07/27 07:39:21;;;;;;;18.63;16.35;;;;;;;20.13;100.00;101030.25;5273198;28;20046;-68
2021/07/27 07:41:53;;;;;;;20.97;15.53;;;;;;;20.26;100.00;101030.38;5267379;28;20032;-69
2021/07/27 07:44:26;;;;;;;18.80;15.20;;;;;;;20.38;100.00;101030.69;5266785;28;20101;-69
2021/07/27 07:46:57;;;;;;;20.60;14.63;;;;;;;20.61;100.00;101022.56;5267295;28;20478;-71
2021/07/27 07:49:28;;;;;;;16.80;13.53;;;;;;;20.82;100.00;101019.84;5264591;28;20041;-68
2021/07/27 07:52:01;;;;;;;14.43;12.60;;;;;;;20.85;100.00;101029.31;5267931;28;20058;-69
2021/07/27 07:54:38;;;;;;;17.52;12.93;;;;;;;20.84;100.00;101030.34;5272034;28;20024;-69
2021/07/27 07:57:10;;;;;;;17.20;12.32;;;;;;;20.85;100.00;101039.97;5273698;28;20088;-69
2021/07/27 07:59:44;;;;;;;15.43;13.70;;;;;;;20.78;100.00;101036.41;5271471;28;20172;-71
2021/07/27 08:02:19;;;;;;;14.52;12.13;;;;;;;20.79;100.00;101038.88;5253201;28;20059;-70
2021/07/27 08:04:50;;;;;;;15.07;13.27;;;;;;;20.73;100.00;101039.66;5269370;28;20029;-70
2021/07/27 08:07:24;;;;;;;14.80;12.97;;;;;;;20.84;100.00;101041.81;5270713;28;20070;-70
2021/07/27 08:09:55;;;;;;;21.85;12.57;;;;;;;20.97;100.00;101042.91;5269457;28;20028;-70
2021/07/27 08:12:26;;;;;;;16.40;13.47;;;;;;;21.06;99.16;101036.41;5269839;28;20375;-71
2021/07/27 08:14:57;;;;;;;27.50;13.57;;;;;;;21.04;99.85;101039.28;5267169;28;20446;-71
2021/07/27 08:17:29;;;;;;;18.23;13.17;;;;;;;21.05;98.10;101043.59;5268324;28;20466;-70
2021/07/27 08:20:01;;;;;;;14.97;13.40;;;;;;;20.96;99.22;101046.59;5269637;28;20101;-70
2021/07/27 08:22:35;;;;;;;13.93;12.37;;;;;;;20.89;99.92;101043.88;5272359;28;20028;-70
2021/07/27 08:25:07;;;;;;;16.30;13.68;;;;;;;20.93;99.47;101044.31;5266894;28;20119;-70
2021/07/27 08:27:38;;;;;;;14.93;13.13;;;;;;;21.14;99.11;101044.28;5272644;28;20037;-70
2021/07/27 08:30:13;;;;;;;15.43;13.27;;;;;;;21.40;100.00;101034.81;5272242;28;20032;-71
2021/07/27 08:32:46;;;;;;;15.02;13.20;;;;;;;21.50;98.75;101030.78;5271613;28;20028;-72
2021/07/27 08:35:18;;;;;;;;;;;;;;;21.71;97.15;101029.88;5254854;28;20052;-71
2021/07/27 08:37:50;;;;;;;16.50;14.20;;;;;;;21.46;95.80;101026.88;5272205;28;19921;-70
2021/07/27 08:40:22;;;;;;;16.77;14.07;;;;;;;21.51;94.89;101027.09;5271903;28;20482;-71
2021/07/27 08:42:54;;;;;;;18.45;15.02;;;;;;;21.56;95.22;101035.34;5271924;28;20542;-70
2021/07/27 08:45:25;;;;;;;14.50;13.00;;;;;;;21.59;95.53;101031.44;5267328;28;20039;-70
2021/07/27 08:47:57;;;;;;;16.13;13.30;;;;;;;21.51;94.70;101037.75;5272863;28;20024;-71
2021/07/27 08:50:29;;;;;;;16.47;12.83;;;;;;;21.47;94.40;101047.16;5272204;28;20028;-70
2021/07/27 08:53:00;;;;;;;15.18;13.57;;;;;;;21.39;94.81;101036.66;5263091;28;20036;-70
2021/07/27 08:55:32;;;;;;;14.60;12.77;;;;;;;21.43;93.82;101045.09;5271920;28;20036;-70
2021/07/27 08:58:03;;;;;;;17.70;14.93;;;;;;;21.62;94.83;101042.53;5272493;28;20041;-70
2021/07/27 09:00:35;;;;;;;16.57;13.33;;;;;;;21.99;95.11;101045.75;5269487;28;20032;-70
2021/07/27 09:03:16;;;;;;;13.83;12.33;;;;;;;22.29;93.73;101050.81;5268031;28;20508;-70
2021/07/27 09:06:02;;;;;;;17.40;13.18;;;;;;;22.43;93.45;101047.13;5268550;28;20162;-69
2021/07/27 09:08:34;;;;;;;14.43;12.35;;;;;;;22.40;90.96;101052.88;5254968;28;20029;-70
2021/07/27 09:11:09;;;;;;;13.87;11.97;;;;;;;22.50;87.30;101047.13;5271927;28;20546;-70
2021/07/27 09:13:40;;;;;;;13.15;11.85;;;;;;;22.42;88.25;101053.47;5270793;28;20505;-70
2021/07/27 09:16:16;;;;;;;14.23;12.63;;;;;;;22.23;89.14;101046.25;5261755;28;20078;-70
2021/07/27 09:19:00;;;;;;;14.65;11.65;;;;;;;22.35;89.88;101044.66;5271974;28;20028;-70
2021/07/27 09:21:31;;;;;;;16.60;11.88;;;;;;;22.41;88.67;101043.00;5272613;28;20031;-70
2021/07/27 09:24:03;;;;;;;16.50;12.60;;;;;;;22.42;88.85;101041.97;5269933;28;20032;-70
2021/07/27 09:26:34;;;;;;;14.30;11.63;;;;;;;22.62;87.85;101037.50;5268544;28;20028;-70
2021/07/27 09:29:05;;;;;;;15.40;12.33;;;;;;;22.73;87.09;101039.56;5272136;28;20025;-70
2021/07/27 09:31:38;;;;;;;14.10;12.07;;;;;;;22.74;87.13;101045.72;5271392;28;20082;-70
2021/07/27 09:34:10;;;;;;;14.15;11.90;;;;;;;22.72;87.21;101039.75;5271362;28;20036;-70
2021/07/27 09:36:43;;;;;;;14.20;11.00;;;;;;;22.79;88.36;101053.94;5270715;28;20021;-70
2021/07/27 09:39:14;;;;;;;12.50;11.20;;;;;;;22.87;88.45;101052.91;5272813;28;20129;-70
2021/07/27 09:41:57;;;;;;;14.73;12.70;;;;;;;22.73;87.38;101050.25;5270813;28;20107;-70
2021/07/27 09:44:30;;;;;;;14.35;12.85;;;;;;;22.49;86.16;101056.97;5272565;28;20295;-71
2021/07/27 09:47:02;;;;;;;13.02;11.60;;;;;;;22.42;88.06;101052.66;5271242;28;20481;-71
2021/07/27 09:49:34;;;;;;;13.90;11.18;;;;;;;22.35;87.70;101058.00;5270245;28;20047;-71
2021/07/27 09:52:05;;;;;;;11.93;10.83;;;;;;;22.34;87.88;101054.50;5269377;28;20063;-71
2021/07/27 09:54:39;;;;;;;13.83;11.97;;;;;;;22.45;89.00;101054.94;5271209;28;20027;-71
2021/07/27 09:57:13;;;;;;;12.95;11.63;;;;;;;22.52;88.24;101051.25;5269528;28;20028;-71
2021/07/27 09:59:48;;;;;;;15.55;12.40;;;;;;;22.37;88.46;101057.78;5271157;28;20036;-71
2021/07/27 10:02:20;;;;;;;12.75;11.45;;;;;;;22.49;89.31;101046.31;5269677;28;20051;-69
2021/07/27 10:04:53;;;;;;;12.48;11.18;;;;;;;22.53;89.08;101052.88;5272522;28;20048;-72
2021/07/27 10:07:29;;;;;;;13.60;11.73;;;;;;;22.68;88.99;101046.53;5271894;28;20028;-71
2021/07/27 10:10:08;;;;;;;11.95;10.75;;;;;;;22.67;88.76;101036.88;5270699;28;20047;-72
2021/07/27 10:12:39;;;;;;;14.10;11.85;;;;;;;22.61;87.72;101059.88;5265667;28;20078;-70
2021/07/27 10:15:13;;;;;;;14.90;12.47;;;;;;;22.56;87.06;101057.00;5265202;28;20025;-70
2021/07/27 10:17:52;;;;;;;13.27;11.85;;;;;;;22.55;87.46;101064.19;5266523;28;20028;-70
2021/07/27 10:20:28;;;;;;;15.23;11.45;;;;;;;22.41;87.83;101049.16;5268316;28;20041;-70
2021/07/27 10:22:59;;;;;;;14.02;11.45;;;;;;;22.41;89.28;101045.69;5267916;28;20027;-70
2021/07/27 10:25:30;;;;;;;16.37;11.93;;;;;;;22.40;86.84;101060.88;5270100;28;20021;-69
2021/07/27 10:28:02;;;;;;;15.57;12.20;;;;;;;22.36;87.79;101050.81;5275017;28;20112;-69
2021/07/27 10:30:38;;;;;;;12.80;11.47;;;;;;;22.45;87.50;101066.44;5275186;28;20498;-70
2021/07/27 10:33:09;;;;;;;18.90;11.70;;;;;;;22.67;88.10;101063.59;5274462;28;20028;-69
2021/07/27 10:35:41;;;;;;;16.20;12.03;;;;;;;22.55;86.84;101066.03;5275238;28;20032;-69
2021/07/27 10:38:14;;;;;;;12.83;11.50;;;;;;;22.71;87.28;101070.97;5275752;28;20032;-70
2021/07/27 10:40:46;;;;;;;11.48;9.90;;;;;;;22.78;87.36;101079.81;5273705;28;20342;-69
2021/07/27 10:43:24;;;;;;;;;;;;;;;23.06;86.49;101068.13;5274827;28;20020;-69
2021/07/27 10:46:02;;;;;;;12.95;8.85;;;;;;;22.75;84.35;101066.88;5260151;28;19912;-69
2021/07/27 10:48:37;;;;;;;12.35;10.02;;;;;;;22.68;84.24;101058.03;5273966;28;20031;-69
2021/07/27 10:51:09;;;;;;;11.77;9.65;;;;;;;22.74;84.97;101062.56;5274108;28;20028;-69
2021/07/27 10:53:44;;;;;;;10.95;9.90;;;;;;;22.90;85.56;101069.34;5271809;28;20149;-69
2021/07/27 10:56:18;;;;;;;11.18;10.00;;;;;;;22.96;84.67;101068.56;5276301;28;20118;-70
2021/07/27 10:58:49;;;;;;;13.55;10.70;;;;;;;22.98;83.45;101071.00;5271819;28;20292;-69
2021/07/27 11:01:28;;;;;;;13.87;10.00;;;;;;;23.29;83.76;101079.19;5273182;28;20033;-70
2021/07/27 11:04:09;;;;;;;10.68;9.63;;;;;;;23.60;84.16;101069.69;5272164;28;20131;-70
2021/07/27 11:06:40;;;;;;;13.55;10.23;;;;;;;23.68;84.23;101072.16;5273830;28;20024;-70
2021/07/27 11:09:12;;;;;;;11.87;10.67;;;;;;;23.67;83.73;101069.69;5274157;28;20044;-69
2021/07/27 11:11:49;;;;;;;14.73;11.33;;;;;;;23.55;83.14;101072.16;5273883;28;20099;-70
2021/07/27 11:14:22;;;;;;;14.63;10.60;;;;;;;23.51;82.53;101077.09;5270969;28;20028;-70
2021/07/27 11:16:54;;;;;;;11.68;10.38;;;;;;;23.39;83.90;101083.31;5266036;28;20470;-71
2021/07/27 11:19:27;;;;;;;12.53;10.80;;;;;;;23.38;85.22;101077.13;5272909;28;20158;-70
2021/07/27 11:21:59;;;;;;;12.82;11.50;;;;;;;23.29;86.36;101078.38;5274505;28;20772;-69
2021/07/27 11:24:31;;;;;;;13.75;12.38;;;;;;;23.31;87.09;101073.66;5274881;28;20099;-70
2021/07/27 11:27:12;;;;;;;16.03;13.03;;;;;;;23.38;87.51;101079.00;5273524;28;20115;-70
2021/07/27 11:29:54;;;;;;;14.73;13.27;;;;;;;23.31;87.05;101079.81;5273860;28;20029;-69
2021/07/27 11:32:43;;;;;;;14.40;12.27;;;;;;;23.43;87.31;101074.66;5269881;28;20146;-69
2021/07/27 11:35:25;;;;;;;13.15;11.85;;;;;;;23.08;86.81;101082.13;5272844;28;20063;-69
2021/07/27 11:38:02;;;;;;;13.48;12.07;;;;;;;22.87;86.66;101066.25;5272567;28;20254;-69
2021/07/27 11:40:33;;;;;;;12.45;10.80;;;;;;;23.04;86.70;101063.00;5271090;28;20043;-69
2021/07/27 11:43:12;;;;;;;12.73;11.30;;;;;;;23.09;86.55;101059.69;5273008;28;20032;-69
2021/07/27 11:45:45;;;;;;;13.27;11.70;;;;;;;23.19;87.02;101059.28;5270011;28;20083;-69
2021/07/27 11:48:16;;;;;;;13.57;10.93;;;;;;;23.45;87.10;101053.03;5274028;28;20458;-69